sensor_id;sensor_type;location;lat;lon;timestamp;P1;durP1;ratioP1;P2;durP2;ratioP2
16294;SDS011;8255;49.560;8.244;2023-01-31T00:00:53;11.03;;;6.20;;
16294;SDS011;8255;49.560;8.244;2023-01-31T00:03:20;22.33;;;10.17;;
16294;SDS011;8255;49.560;8.244;2023-01-31T00:05:46;9.03;;;5.60;;
16294;SDS011;8255;49.560;8.244;2023-01-31T00:08:12;15.93;;;5.60;;
16294;SDS011;8255;49.560;8.244;2023-01-31T00:10:39;9.20;;;4.97;;
16294;SDS011;8255;49.560;8.244;2023-01-31T00:13:05;9.27;;;4.63;;
16294;SDS011;8255;49.560;8.244;2023-01-31T00:15:32;9.90;;;5.30;;
16294;SDS011;8255;49.560;8.244;2023-01-31T00:17:59;9.97;;;5.73;;
16294;SDS011;8255;49.560;8.244;2023-01-31T00:20:26;9.83;;;5.03;;
16294;SDS011;8255;49.560;8.244;2023-01-31T00:22:52;9.93;;;4.63;;
16294;SDS011;8255;49.560;8.244;2023-01-31T00:25:18;11.97;;;5.73;;
16294;SDS011;8255;49.560;8.244;2023-01-31T00:27:45;7.70;;;4.93;;
16294;SDS011;8255;49.560;8.244;2023-01-31T00:30:11;8.90;;;5.20;;
16294;SDS011;8255;49.560;8.244;2023-01-31T00:32:38;10.90;;;5.67;;
16294;SDS011;8255;49.560;8.244;2023-01-31T00:35:06;9.80;;;5.50;;
16294;SDS011;8255;49.560;8.244;2023-01-31T00:37:33;10.37;;;5.13;;
16294;SDS011;8255;49.560;8.244;2023-01-31T00:40:00;9.73;;;4.90;;
16294;SDS011;8255;49.560;8.244;2023-01-31T00:42:26;8.93;;;5.13;;
16294;SDS011;8255;49.560;8.244;2023-01-31T00:44:52;10.30;;;4.87;;
16294;SDS011;8255;49.560;8.244;2023-01-31T00:47:19;12.13;;;5.10;;
16294;SDS011;8255;49.560;8.244;2023-01-31T00:49:45;9.03;;;5.47;;
16294;SDS011;8255;49.560;8.244;2023-01-31T00:52:13;11.80;;;5.37;;
16294;SDS011;8255;49.560;8.244;2023-01-31T00:54:39;13.90;;;6.23;;
16294;SDS011;8255;49.560;8.244;2023-01-31T00:57:07;16.33;;;9.43;;
16294;SDS011;8255;49.560;8.244;2023-01-31T00:59:33;15.83;;;5.87;;
16294;SDS011;8255;49.560;8.244;2023-01-31T01:01:59;11.30;;;6.10;;
16294;SDS011;8255;49.560;8.244;2023-01-31T01:04:26;12.43;;;5.30;;
16294;SDS011;8255;49.560;8.244;2023-01-31T01:06:52;14.77;;;5.90;;
16294;SDS011;8255;49.560;8.244;2023-01-31T01:09:19;8.30;;;5.10;;
16294;SDS011;8255;49.560;8.244;2023-01-31T01:11:46;11.73;;;5.97;;
16294;SDS011;8255;49.560;8.244;2023-01-31T01:14:13;16.90;;;5.63;;
16294;SDS011;8255;49.560;8.244;2023-01-31T01:16:39;11.47;;;6.17;;
16294;SDS011;8255;49.560;8.244;2023-01-31T01:19:06;18.00;;;7.90;;
16294;SDS011;8255;49.560;8.244;2023-01-31T01:21:33;15.30;;;7.50;;
16294;SDS011;8255;49.560;8.244;2023-01-31T01:24:03;14.80;;;7.40;;
16294;SDS011;8255;49.560;8.244;2023-01-31T01:26:32;13.87;;;5.87;;
16294;SDS011;8255;49.560;8.244;2023-01-31T01:28:59;8.93;;;5.63;;
16294;SDS011;8255;49.560;8.244;2023-01-31T01:31:27;11.63;;;6.40;;
16294;SDS011;8255;49.560;8.244;2023-01-31T01:33:55;9.77;;;5.43;;
16294;SDS011;8255;49.560;8.244;2023-01-31T01:36:23;9.57;;;5.57;;
16294;SDS011;8255;49.560;8.244;2023-01-31T01:38:49;17.67;;;7.93;;
16294;SDS011;8255;49.560;8.244;2023-01-31T01:41:16;17.70;;;8.10;;
16294;SDS011;8255;49.560;8.244;2023-01-31T01:43:44;14.53;;;6.10;;
16294;SDS011;8255;49.560;8.244;2023-01-31T01:46:11;12.23;;;5.73;;
16294;SDS011;8255;49.560;8.244;2023-01-31T01:48:38;11.27;;;5.87;;
16294;SDS011;8255;49.560;8.244;2023-01-31T01:51:06;15.60;;;6.37;;
16294;SDS011;8255;49.560;8.244;2023-01-31T01:53:33;12.47;;;6.67;;
16294;SDS011;8255;49.560;8.244;2023-01-31T01:56:01;15.83;;;6.47;;
16294;SDS011;8255;49.560;8.244;2023-01-31T01:58:29;11.83;;;6.27;;
16294;SDS011;8255;49.560;8.244;2023-01-31T02:00:58;15.10;;;8.33;;
16294;SDS011;8255;49.560;8.244;2023-01-31T02:03:25;10.63;;;5.77;;
16294;SDS011;8255;49.560;8.244;2023-01-31T02:05:52;12.30;;;6.13;;
16294;SDS011;8255;49.560;8.244;2023-01-31T02:08:20;14.73;;;6.37;;
16294;SDS011;8255;49.560;8.244;2023-01-31T02:10:49;13.83;;;5.50;;
16294;SDS011;8255;49.560;8.244;2023-01-31T02:13:16;11.43;;;6.30;;
16294;SDS011;8255;49.560;8.244;2023-01-31T02:15:43;12.77;;;6.27;;
16294;SDS011;8255;49.560;8.244;2023-01-31T02:18:11;13.10;;;5.77;;
16294;SDS011;8255;49.560;8.244;2023-01-31T02:20:50;14.00;;;6.50;;
16294;SDS011;8255;49.560;8.244;2023-01-31T02:23:23;10.97;;;6.63;;
16294;SDS011;8255;49.560;8.244;2023-01-31T02:26:00;16.63;;;7.73;;
16294;SDS011;8255;49.560;8.244;2023-01-31T02:28:41;15.53;;;7.13;;
16294;SDS011;8255;49.560;8.244;2023-01-31T02:31:18;11.17;;;5.73;;
16294;SDS011;8255;49.560;8.244;2023-01-31T02:33:50;13.97;;;6.40;;
16294;SDS011;8255;49.560;8.244;2023-01-31T02:36:19;9.73;;;5.30;;
16294;SDS011;8255;49.560;8.244;2023-01-31T02:38:53;13.27;;;5.43;;
16294;SDS011;8255;49.560;8.244;2023-01-31T02:41:24;12.57;;;5.97;;
16294;SDS011;8255;49.560;8.244;2023-01-31T02:43:53;14.40;;;6.13;;
16294;SDS011;8255;49.560;8.244;2023-01-31T02:46:41;16.93;;;6.43;;
16294;SDS011;8255;49.560;8.244;2023-01-31T02:49:13;16.13;;;7.27;;
16294;SDS011;8255;49.560;8.244;2023-01-31T02:52:00;16.40;;;7.20;;
16294;SDS011;8255;49.560;8.244;2023-01-31T02:54:42;13.80;;;6.03;;
16294;SDS011;8255;49.560;8.244;2023-01-31T02:57:27;13.33;;;5.93;;
16294;SDS011;8255;49.560;8.244;2023-01-31T02:59:54;12.80;;;6.23;;
16294;SDS011;8255;49.560;8.244;2023-01-31T03:02:21;13.23;;;6.63;;
16294;SDS011;8255;49.560;8.244;2023-01-31T03:04:49;13.83;;;6.13;;
16294;SDS011;8255;49.560;8.244;2023-01-31T03:07:16;10.60;;;5.93;;
16294;SDS011;8255;49.560;8.244;2023-01-31T03:09:49;14.67;;;6.63;;
16294;SDS011;8255;49.560;8.244;2023-01-31T03:12:24;9.00;;;5.60;;
16294;SDS011;8255;49.560;8.244;2023-01-31T03:14:55;13.17;;;6.87;;
16294;SDS011;8255;49.560;8.244;2023-01-31T03:17:28;13.43;;;6.43;;
16294;SDS011;8255;49.560;8.244;2023-01-31T03:19:59;13.23;;;6.40;;
16294;SDS011;8255;49.560;8.244;2023-01-31T03:22:30;11.40;;;6.30;;
16294;SDS011;8255;49.560;8.244;2023-01-31T03:24:58;9.07;;;5.47;;
16294;SDS011;8255;49.560;8.244;2023-01-31T03:27:24;12.23;;;6.13;;
16294;SDS011;8255;49.560;8.244;2023-01-31T03:29:53;12.17;;;6.10;;
16294;SDS011;8255;49.560;8.244;2023-01-31T03:32:24;13.50;;;6.20;;
16294;SDS011;8255;49.560;8.244;2023-01-31T03:34:51;15.13;;;6.30;;
16294;SDS011;8255;49.560;8.244;2023-01-31T03:37:20;11.87;;;6.63;;
16294;SDS011;8255;49.560;8.244;2023-01-31T03:39:57;15.50;;;6.47;;
16294;SDS011;8255;49.560;8.244;2023-01-31T03:42:26;14.47;;;7.03;;
16294;SDS011;8255;49.560;8.244;2023-01-31T03:44:57;12.00;;;6.80;;
16294;SDS011;8255;49.560;8.244;2023-01-31T03:47:25;10.67;;;6.70;;
16294;SDS011;8255;49.560;8.244;2023-01-31T03:49:55;12.07;;;6.33;;
16294;SDS011;8255;49.560;8.244;2023-01-31T03:52:26;11.77;;;6.40;;
16294;SDS011;8255;49.560;8.244;2023-01-31T03:54:55;12.10;;;6.57;;
16294;SDS011;8255;49.560;8.244;2023-01-31T03:57:24;15.60;;;6.70;;
16294;SDS011;8255;49.560;8.244;2023-01-31T03:59:54;14.43;;;7.20;;
16294;SDS011;8255;49.560;8.244;2023-01-31T04:02:24;15.17;;;9.53;;
16294;SDS011;8255;49.560;8.244;2023-01-31T04:04:52;12.47;;;6.43;;
16294;SDS011;8255;49.560;8.244;2023-01-31T04:07:20;10.53;;;6.53;;
16294;SDS011;8255;49.560;8.244;2023-01-31T04:09:48;13.13;;;6.87;;
16294;SDS011;8255;49.560;8.244;2023-01-31T04:12:14;13.83;;;7.30;;
16294;SDS011;8255;49.560;8.244;2023-01-31T04:14:40;14.70;;;6.83;;
16294;SDS011;8255;49.560;8.244;2023-01-31T04:17:07;12.43;;;6.70;;
16294;SDS011;8255;49.560;8.244;2023-01-31T04:19:33;16.87;;;7.83;;
16294;SDS011;8255;49.560;8.244;2023-01-31T04:22:00;14.90;;;7.10;;
16294;SDS011;8255;49.560;8.244;2023-01-31T04:24:26;16.50;;;9.63;;
16294;SDS011;8255;49.560;8.244;2023-01-31T04:26:54;17.07;;;7.90;;
16294;SDS011;8255;49.560;8.244;2023-01-31T04:29:20;18.83;;;8.20;;
16294;SDS011;8255;49.560;8.244;2023-01-31T04:31:46;17.33;;;7.87;;
16294;SDS011;8255;49.560;8.244;2023-01-31T04:34:12;14.83;;;7.23;;
16294;SDS011;8255;49.560;8.244;2023-01-31T04:36:39;17.73;;;7.90;;
16294;SDS011;8255;49.560;8.244;2023-01-31T04:39:05;14.13;;;7.33;;
16294;SDS011;8255;49.560;8.244;2023-01-31T04:41:31;12.77;;;6.90;;
16294;SDS011;8255;49.560;8.244;2023-01-31T04:43:59;14.63;;;7.37;;
16294;SDS011;8255;49.560;8.244;2023-01-31T04:46:26;13.53;;;7.83;;
16294;SDS011;8255;49.560;8.244;2023-01-31T04:48:52;15.23;;;7.50;;
16294;SDS011;8255;49.560;8.244;2023-01-31T04:51:18;16.90;;;9.93;;
16294;SDS011;8255;49.560;8.244;2023-01-31T04:53:45;16.27;;;8.13;;
16294;SDS011;8255;49.560;8.244;2023-01-31T04:56:11;16.17;;;7.10;;
16294;SDS011;8255;49.560;8.244;2023-01-31T04:58:37;14.10;;;7.77;;
16294;SDS011;8255;49.560;8.244;2023-01-31T05:01:07;14.10;;;7.77;;
16294;SDS011;8255;49.560;8.244;2023-01-31T05:03:33;16.03;;;7.47;;
16294;SDS011;8255;49.560;8.244;2023-01-31T05:05:59;11.43;;;6.97;;
16294;SDS011;8255;49.560;8.244;2023-01-31T05:08:25;13.43;;;7.73;;
16294;SDS011;8255;49.560;8.244;2023-01-31T05:10:55;14.77;;;7.17;;
16294;SDS011;8255;49.560;8.244;2023-01-31T05:13:22;12.27;;;7.30;;
16294;SDS011;8255;49.560;8.244;2023-01-31T05:15:49;15.30;;;9.93;;
16294;SDS011;8255;49.560;8.244;2023-01-31T05:18:17;14.97;;;6.73;;
16294;SDS011;8255;49.560;8.244;2023-01-31T05:20:43;21.73;;;10.87;;
16294;SDS011;8255;49.560;8.244;2023-01-31T05:23:10;13.87;;;8.10;;
16294;SDS011;8255;49.560;8.244;2023-01-31T05:25:37;13.40;;;7.63;;
16294;SDS011;8255;49.560;8.244;2023-01-31T05:28:03;13.37;;;7.10;;
16294;SDS011;8255;49.560;8.244;2023-01-31T05:30:30;15.73;;;7.37;;
16294;SDS011;8255;49.560;8.244;2023-01-31T05:32:56;12.30;;;7.17;;
16294;SDS011;8255;49.560;8.244;2023-01-31T05:35:24;14.00;;;9.27;;
16294;SDS011;8255;49.560;8.244;2023-01-31T05:37:51;16.17;;;7.60;;
16294;SDS011;8255;49.560;8.244;2023-01-31T05:40:18;21.47;;;9.13;;
16294;SDS011;8255;49.560;8.244;2023-01-31T05:42:44;16.33;;;8.23;;
16294;SDS011;8255;49.560;8.244;2023-01-31T05:45:11;11.97;;;7.00;;
16294;SDS011;8255;49.560;8.244;2023-01-31T05:47:40;14.03;;;7.27;;
16294;SDS011;8255;49.560;8.244;2023-01-31T05:50:07;13.83;;;7.17;;
16294;SDS011;8255;49.560;8.244;2023-01-31T05:52:35;15.27;;;6.83;;
16294;SDS011;8255;49.560;8.244;2023-01-31T05:55:01;16.07;;;7.47;;
16294;SDS011;8255;49.560;8.244;2023-01-31T05:57:27;13.37;;;6.73;;
16294;SDS011;8255;49.560;8.244;2023-01-31T05:59:54;14.63;;;7.57;;
16294;SDS011;8255;49.560;8.244;2023-01-31T06:02:20;15.20;;;8.00;;
16294;SDS011;8255;49.560;8.244;2023-01-31T06:04:46;14.03;;;8.10;;
16294;SDS011;8255;49.560;8.244;2023-01-31T06:07:13;14.67;;;7.17;;
16294;SDS011;8255;49.560;8.244;2023-01-31T06:09:41;13.23;;;7.60;;
16294;SDS011;8255;49.560;8.244;2023-01-31T06:12:08;17.43;;;8.73;;
16294;SDS011;8255;49.560;8.244;2023-01-31T06:14:37;16.30;;;9.00;;
16294;SDS011;8255;49.560;8.244;2023-01-31T06:17:03;14.77;;;8.27;;
16294;SDS011;8255;49.560;8.244;2023-01-31T06:19:29;13.97;;;9.47;;
16294;SDS011;8255;49.560;8.244;2023-01-31T06:21:56;17.90;;;9.03;;
16294;SDS011;8255;49.560;8.244;2023-01-31T06:24:22;16.50;;;10.40;;
16294;SDS011;8255;49.560;8.244;2023-01-31T06:26:50;19.70;;;11.00;;
16294;SDS011;8255;49.560;8.244;2023-01-31T06:29:16;17.70;;;10.87;;
16294;SDS011;8255;49.560;8.244;2023-01-31T06:31:43;24.80;;;8.67;;
16294;SDS011;8255;49.560;8.244;2023-01-31T06:34:09;12.87;;;7.00;;
16294;SDS011;8255;49.560;8.244;2023-01-31T06:36:36;16.40;;;7.97;;
16294;SDS011;8255;49.560;8.244;2023-01-31T06:39:02;12.50;;;8.37;;
16294;SDS011;8255;49.560;8.244;2023-01-31T06:41:29;15.20;;;8.47;;
16294;SDS011;8255;49.560;8.244;2023-01-31T06:43:56;15.70;;;8.37;;
16294;SDS011;8255;49.560;8.244;2023-01-31T06:46:23;15.90;;;8.67;;
16294;SDS011;8255;49.560;8.244;2023-01-31T06:48:49;19.37;;;10.67;;
16294;SDS011;8255;49.560;8.244;2023-01-31T06:51:15;13.80;;;8.80;;
16294;SDS011;8255;49.560;8.244;2023-01-31T06:53:42;18.30;;;8.40;;
16294;SDS011;8255;49.560;8.244;2023-01-31T06:56:08;12.60;;;7.37;;
16294;SDS011;8255;49.560;8.244;2023-01-31T06:58:34;16.13;;;8.33;;
16294;SDS011;8255;49.560;8.244;2023-01-31T07:01:05;12.03;;;8.40;;
16294;SDS011;8255;49.560;8.244;2023-01-31T07:03:31;13.67;;;8.57;;
16294;SDS011;8255;49.560;8.244;2023-01-31T07:05:58;13.87;;;8.07;;
16294;SDS011;8255;49.560;8.244;2023-01-31T07:08:24;13.67;;;8.60;;
16294;SDS011;8255;49.560;8.244;2023-01-31T07:10:50;17.77;;;9.60;;
16294;SDS011;8255;49.560;8.244;2023-01-31T07:13:17;16.73;;;10.27;;
16294;SDS011;8255;49.560;8.244;2023-01-31T07:15:44;15.47;;;8.73;;
16294;SDS011;8255;49.560;8.244;2023-01-31T07:18:11;14.60;;;8.63;;
16294;SDS011;8255;49.560;8.244;2023-01-31T07:20:38;14.47;;;7.40;;
16294;SDS011;8255;49.560;8.244;2023-01-31T07:23:04;13.10;;;7.57;;
16294;SDS011;8255;49.560;8.244;2023-01-31T07:25:31;12.37;;;7.97;;
16294;SDS011;8255;49.560;8.244;2023-01-31T07:27:58;12.63;;;7.73;;
16294;SDS011;8255;49.560;8.244;2023-01-31T07:30:24;14.37;;;9.20;;
16294;SDS011;8255;49.560;8.244;2023-01-31T07:32:50;14.70;;;8.40;;
16294;SDS011;8255;49.560;8.244;2023-01-31T07:35:18;11.77;;;7.43;;
16294;SDS011;8255;49.560;8.244;2023-01-31T07:37:45;11.43;;;7.73;;
16294;SDS011;8255;49.560;8.244;2023-01-31T07:40:13;11.37;;;6.57;;
16294;SDS011;8255;49.560;8.244;2023-01-31T07:42:39;10.87;;;7.37;;
16294;SDS011;8255;49.560;8.244;2023-01-31T07:45:07;10.10;;;6.67;;
16294;SDS011;8255;49.560;8.244;2023-01-31T07:47:34;11.03;;;6.90;;
16294;SDS011;8255;49.560;8.244;2023-01-31T07:50:00;11.87;;;7.37;;
16294;SDS011;8255;49.560;8.244;2023-01-31T07:52:28;13.97;;;7.33;;
16294;SDS011;8255;49.560;8.244;2023-01-31T07:54:54;13.07;;;6.40;;
16294;SDS011;8255;49.560;8.244;2023-01-31T07:57:21;15.23;;;6.87;;
16294;SDS011;8255;49.560;8.244;2023-01-31T07:59:47;14.00;;;7.23;;
16294;SDS011;8255;49.560;8.244;2023-01-31T08:02:14;13.33;;;6.90;;
16294;SDS011;8255;49.560;8.244;2023-01-31T08:04:58;14.37;;;8.27;;
16294;SDS011;8255;49.560;8.244;2023-01-31T08:07:25;9.07;;;7.27;;
16294;SDS011;8255;49.560;8.244;2023-01-31T08:09:52;12.97;;;7.00;;
16294;SDS011;8255;49.560;8.244;2023-01-31T08:12:19;12.53;;;7.03;;
16294;SDS011;8255;49.560;8.244;2023-01-31T08:14:45;12.80;;;6.80;;
16294;SDS011;8255;49.560;8.244;2023-01-31T08:17:12;10.87;;;6.87;;
16294;SDS011;8255;49.560;8.244;2023-01-31T08:19:38;12.53;;;6.50;;
16294;SDS011;8255;49.560;8.244;2023-01-31T08:22:05;13.07;;;6.97;;
16294;SDS011;8255;49.560;8.244;2023-01-31T08:24:31;13.27;;;7.10;;
16294;SDS011;8255;49.560;8.244;2023-01-31T08:26:59;12.03;;;7.37;;
16294;SDS011;8255;49.560;8.244;2023-01-31T08:29:25;13.73;;;8.70;;
16294;SDS011;8255;49.560;8.244;2023-01-31T08:31:52;12.60;;;8.50;;
16294;SDS011;8255;49.560;8.244;2023-01-31T08:34:18;12.60;;;7.53;;
16294;SDS011;8255;49.560;8.244;2023-01-31T08:36:45;11.07;;;6.33;;
16294;SDS011;8255;49.560;8.244;2023-01-31T08:39:11;14.53;;;7.53;;
16294;SDS011;8255;49.560;8.244;2023-01-31T08:41:38;15.23;;;6.77;;
16294;SDS011;8255;49.560;8.244;2023-01-31T08:44:06;12.20;;;6.93;;
16294;SDS011;8255;49.560;8.244;2023-01-31T08:46:33;13.73;;;7.37;;
16294;SDS011;8255;49.560;8.244;2023-01-31T08:49:00;10.93;;;7.07;;
16294;SDS011;8255;49.560;8.244;2023-01-31T08:51:27;15.33;;;7.23;;
16294;SDS011;8255;49.560;8.244;2023-01-31T08:53:54;10.70;;;7.23;;
16294;SDS011;8255;49.560;8.244;2023-01-31T08:56:20;14.50;;;8.90;;
16294;SDS011;8255;49.560;8.244;2023-01-31T08:58:50;12.57;;;7.43;;
16294;SDS011;8255;49.560;8.244;2023-01-31T09:01:18;12.63;;;8.50;;
16294;SDS011;8255;49.560;8.244;2023-01-31T09:03:45;13.93;;;7.23;;
16294;SDS011;8255;49.560;8.244;2023-01-31T09:06:12;14.50;;;7.63;;
16294;SDS011;8255;49.560;8.244;2023-01-31T09:08:39;13.50;;;7.73;;
16294;SDS011;8255;49.560;8.244;2023-01-31T09:11:05;10.07;;;6.97;;
16294;SDS011;8255;49.560;8.244;2023-01-31T09:13:32;13.53;;;7.50;;
16294;SDS011;8255;49.560;8.244;2023-01-31T09:15:59;12.07;;;7.67;;
16294;SDS011;8255;49.560;8.244;2023-01-31T09:18:28;20.70;;;7.87;;
16294;SDS011;8255;49.560;8.244;2023-01-31T09:20:54;11.60;;;7.23;;
16294;SDS011;8255;49.560;8.244;2023-01-31T09:23:20;13.93;;;7.27;;
16294;SDS011;8255;49.560;8.244;2023-01-31T09:25:50;14.90;;;6.97;;
16294;SDS011;8255;49.560;8.244;2023-01-31T09:28:17;15.57;;;7.23;;
16294;SDS011;8255;49.560;8.244;2023-01-31T09:30:43;13.93;;;7.60;;
16294;SDS011;8255;49.560;8.244;2023-01-31T09:33:10;15.30;;;7.87;;
16294;SDS011;8255;49.560;8.244;2023-01-31T09:35:37;15.87;;;8.10;;
16294;SDS011;8255;49.560;8.244;2023-01-31T09:38:03;13.30;;;8.20;;
16294;SDS011;8255;49.560;8.244;2023-01-31T09:40:31;12.97;;;7.73;;
16294;SDS011;8255;49.560;8.244;2023-01-31T09:42:58;15.23;;;7.90;;
16294;SDS011;8255;49.560;8.244;2023-01-31T09:45:28;11.20;;;8.07;;
16294;SDS011;8255;49.560;8.244;2023-01-31T09:47:56;13.40;;;7.03;;
16294;SDS011;8255;49.560;8.244;2023-01-31T09:50:26;15.93;;;8.80;;
16294;SDS011;8255;49.560;8.244;2023-01-31T09:52:56;17.77;;;8.40;;
16294;SDS011;8255;49.560;8.244;2023-01-31T09:55:23;14.90;;;7.57;;
16294;SDS011;8255;49.560;8.244;2023-01-31T09:57:52;15.00;;;6.70;;
16294;SDS011;8255;49.560;8.244;2023-01-31T10:00:23;10.80;;;6.30;;
16294;SDS011;8255;49.560;8.244;2023-01-31T10:03:01;15.30;;;8.00;;
16294;SDS011;8255;49.560;8.244;2023-01-31T10:05:29;18.10;;;6.93;;
16294;SDS011;8255;49.560;8.244;2023-01-31T10:08:01;15.13;;;6.93;;
16294;SDS011;8255;49.560;8.244;2023-01-31T10:10:32;13.43;;;7.10;;
16294;SDS011;8255;49.560;8.244;2023-01-31T10:13:01;19.43;;;9.90;;
16294;SDS011;8255;49.560;8.244;2023-01-31T10:15:29;12.83;;;8.60;;
16294;SDS011;8255;49.560;8.244;2023-01-31T10:17:57;15.40;;;7.30;;
16294;SDS011;8255;49.560;8.244;2023-01-31T10:20:31;12.50;;;8.57;;
16294;SDS011;8255;49.560;8.244;2023-01-31T10:23:01;15.23;;;7.50;;
16294;SDS011;8255;49.560;8.244;2023-01-31T10:25:31;14.83;;;7.57;;
16294;SDS011;8255;49.560;8.244;2023-01-31T10:27:59;13.20;;;7.90;;
16294;SDS011;8255;49.560;8.244;2023-01-31T10:30:27;14.00;;;6.63;;
16294;SDS011;8255;49.560;8.244;2023-01-31T10:32:55;13.60;;;7.17;;
16294;SDS011;8255;49.560;8.244;2023-01-31T10:35:24;13.20;;;7.30;;
16294;SDS011;8255;49.560;8.244;2023-01-31T10:37:56;10.33;;;7.00;;
16294;SDS011;8255;49.560;8.244;2023-01-31T10:40:29;17.30;;;9.67;;
16294;SDS011;8255;49.560;8.244;2023-01-31T10:42:59;12.57;;;8.17;;
16294;SDS011;8255;49.560;8.244;2023-01-31T10:45:26;15.87;;;7.73;;
16294;SDS011;8255;49.560;8.244;2023-01-31T10:48:06;12.80;;;6.90;;
16294;SDS011;8255;49.560;8.244;2023-01-31T10:50:39;15.17;;;7.63;;
16294;SDS011;8255;49.560;8.244;2023-01-31T10:53:10;16.83;;;7.30;;
16294;SDS011;8255;49.560;8.244;2023-01-31T10:55:45;13.07;;;7.90;;
16294;SDS011;8255;49.560;8.244;2023-01-31T10:58:13;14.87;;;7.90;;
16294;SDS011;8255;49.560;8.244;2023-01-31T11:00:40;15.10;;;6.40;;
16294;SDS011;8255;49.560;8.244;2023-01-31T11:03:08;16.57;;;9.73;;
16294;SDS011;8255;49.560;8.244;2023-01-31T11:05:35;15.93;;;10.43;;
16294;SDS011;8255;49.560;8.244;2023-01-31T11:08:04;15.40;;;8.50;;
16294;SDS011;8255;49.560;8.244;2023-01-31T11:10:35;17.67;;;7.20;;
16294;SDS011;8255;49.560;8.244;2023-01-31T11:13:18;12.73;;;7.10;;
16294;SDS011;8255;49.560;8.244;2023-01-31T11:15:44;14.33;;;7.20;;
16294;SDS011;8255;49.560;8.244;2023-01-31T11:18:12;15.63;;;6.37;;
16294;SDS011;8255;49.560;8.244;2023-01-31T11:20:43;15.57;;;7.17;;
16294;SDS011;8255;49.560;8.244;2023-01-31T11:23:11;14.10;;;5.33;;
16294;SDS011;8255;49.560;8.244;2023-01-31T11:25:39;12.80;;;6.63;;
16294;SDS011;8255;49.560;8.244;2023-01-31T11:28:16;15.20;;;6.73;;
16294;SDS011;8255;49.560;8.244;2023-01-31T11:30:47;12.50;;;6.30;;
16294;SDS011;8255;49.560;8.244;2023-01-31T11:35:56;12.80;;;6.00;;
16294;SDS011;8255;49.560;8.244;2023-01-31T11:38:22;12.70;;;6.03;;
16294;SDS011;8255;49.560;8.244;2023-01-31T11:40:49;15.37;;;6.40;;
16294;SDS011;8255;49.560;8.244;2023-01-31T11:43:22;11.20;;;6.50;;
16294;SDS011;8255;49.560;8.244;2023-01-31T11:45:54;14.57;;;5.93;;
16294;SDS011;8255;49.560;8.244;2023-01-31T11:48:22;12.23;;;5.87;;
16294;SDS011;8255;49.560;8.244;2023-01-31T11:50:50;12.30;;;6.27;;
16294;SDS011;8255;49.560;8.244;2023-01-31T11:53:17;12.03;;;6.33;;
16294;SDS011;8255;49.560;8.244;2023-01-31T11:55:45;15.07;;;6.23;;
16294;SDS011;8255;49.560;8.244;2023-01-31T11:58:14;11.53;;;5.83;;
16294;SDS011;8255;49.560;8.244;2023-01-31T12:00:43;12.13;;;6.10;;
16294;SDS011;8255;49.560;8.244;2023-01-31T12:03:17;10.47;;;6.10;;
16294;SDS011;8255;49.560;8.244;2023-01-31T12:05:44;11.00;;;5.43;;
16294;SDS011;8255;49.560;8.244;2023-01-31T12:08:28;7.83;;;5.27;;
16294;SDS011;8255;49.560;8.244;2023-01-31T12:10:54;14.67;;;5.90;;
16294;SDS011;8255;49.560;8.244;2023-01-31T12:13:21;8.93;;;5.30;;
16294;SDS011;8255;49.560;8.244;2023-01-31T12:15:51;10.53;;;5.67;;
16294;SDS011;8255;49.560;8.244;2023-01-31T12:18:26;9.97;;;5.47;;
16294;SDS011;8255;49.560;8.244;2023-01-31T12:20:57;11.63;;;5.90;;
16294;SDS011;8255;49.560;8.244;2023-01-31T12:23:30;7.77;;;5.50;;
16294;SDS011;8255;49.560;8.244;2023-01-31T12:26:02;11.23;;;6.10;;
16294;SDS011;8255;49.560;8.244;2023-01-31T12:28:32;11.30;;;6.80;;
16294;SDS011;8255;49.560;8.244;2023-01-31T12:31:04;9.63;;;6.70;;
16294;SDS011;8255;49.560;8.244;2023-01-31T12:33:37;11.03;;;5.73;;
16294;SDS011;8255;49.560;8.244;2023-01-31T12:36:17;10.83;;;5.67;;
16294;SDS011;8255;49.560;8.244;2023-01-31T12:38:50;10.33;;;5.53;;
16294;SDS011;8255;49.560;8.244;2023-01-31T12:41:22;11.30;;;5.70;;
16294;SDS011;8255;49.560;8.244;2023-01-31T12:43:54;7.40;;;5.40;;
16294;SDS011;8255;49.560;8.244;2023-01-31T12:46:24;7.80;;;5.23;;
16294;SDS011;8255;49.560;8.244;2023-01-31T12:49:01;7.07;;;5.37;;
16294;SDS011;8255;49.560;8.244;2023-01-31T12:51:37;13.63;;;6.87;;
16294;SDS011;8255;49.560;8.244;2023-01-31T12:54:12;12.57;;;6.20;;
16294;SDS011;8255;49.560;8.244;2023-01-31T12:56:45;10.33;;;7.20;;
16294;SDS011;8255;49.560;8.244;2023-01-31T12:59:23;12.63;;;5.87;;
16294;SDS011;8255;49.560;8.244;2023-01-31T13:01:54;12.57;;;5.40;;
16294;SDS011;8255;49.560;8.244;2023-01-31T13:04:27;8.20;;;5.13;;
16294;SDS011;8255;49.560;8.244;2023-01-31T13:06:56;9.17;;;5.43;;
16294;SDS011;8255;49.560;8.244;2023-01-31T13:09:24;11.30;;;5.27;;
16294;SDS011;8255;49.560;8.244;2023-01-31T13:11:53;7.80;;;4.97;;
16294;SDS011;8255;49.560;8.244;2023-01-31T13:14:22;8.63;;;5.17;;
16294;SDS011;8255;49.560;8.244;2023-01-31T13:16:50;6.83;;;4.63;;
16294;SDS011;8255;49.560;8.244;2023-01-31T13:19:18;11.17;;;6.90;;
16294;SDS011;8255;49.560;8.244;2023-01-31T13:21:47;7.37;;;4.47;;
16294;SDS011;8255;49.560;8.244;2023-01-31T13:24:16;10.00;;;5.53;;
16294;SDS011;8255;49.560;8.244;2023-01-31T13:26:44;9.50;;;5.70;;
16294;SDS011;8255;49.560;8.244;2023-01-31T13:29:13;7.60;;;5.40;;
16294;SDS011;8255;49.560;8.244;2023-01-31T13:31:41;9.47;;;5.20;;
16294;SDS011;8255;49.560;8.244;2023-01-31T13:34:11;6.93;;;4.97;;
16294;SDS011;8255;49.560;8.244;2023-01-31T13:36:40;9.00;;;5.73;;
16294;SDS011;8255;49.560;8.244;2023-01-31T13:39:12;9.17;;;5.60;;
16294;SDS011;8255;49.560;8.244;2023-01-31T13:41:39;10.90;;;5.80;;
16294;SDS011;8255;49.560;8.244;2023-01-31T13:44:07;13.33;;;5.37;;
16294;SDS011;8255;49.560;8.244;2023-01-31T13:46:37;8.40;;;5.53;;
16294;SDS011;8255;49.560;8.244;2023-01-31T13:49:08;9.30;;;4.80;;
16294;SDS011;8255;49.560;8.244;2023-01-31T13:51:40;9.57;;;4.60;;
16294;SDS011;8255;49.560;8.244;2023-01-31T13:54:13;9.40;;;5.73;;
16294;SDS011;8255;49.560;8.244;2023-01-31T13:56:41;6.73;;;5.17;;
16294;SDS011;8255;49.560;8.244;2023-01-31T13:59:08;8.07;;;5.30;;
16294;SDS011;8255;49.560;8.244;2023-01-31T14:01:35;12.10;;;5.90;;
16294;SDS011;8255;49.560;8.244;2023-01-31T14:04:24;9.50;;;5.87;;
16294;SDS011;8255;49.560;8.244;2023-01-31T14:09:41;12.20;;;5.97;;
16294;SDS011;8255;49.560;8.244;2023-01-31T14:14:52;9.83;;;5.70;;
16294;SDS011;8255;49.560;8.244;2023-01-31T14:20:01;11.50;;;5.67;;
16294;SDS011;8255;49.560;8.244;2023-01-31T14:22:28;10.83;;;5.73;;
16294;SDS011;8255;49.560;8.244;2023-01-31T14:25:00;13.20;;;5.90;;
16294;SDS011;8255;49.560;8.244;2023-01-31T14:27:32;9.80;;;5.93;;
16294;SDS011;8255;49.560;8.244;2023-01-31T14:30:06;10.67;;;6.00;;
16294;SDS011;8255;49.560;8.244;2023-01-31T14:32:35;12.77;;;6.60;;
16294;SDS011;8255;49.560;8.244;2023-01-31T14:35:04;11.37;;;6.30;;
16294;SDS011;8255;49.560;8.244;2023-01-31T14:37:35;10.00;;;7.23;;
16294;SDS011;8255;49.560;8.244;2023-01-31T14:40:14;18.37;;;6.83;;
16294;SDS011;8255;49.560;8.244;2023-01-31T14:42:45;6.03;;;4.40;;
16294;SDS011;8255;49.560;8.244;2023-01-31T14:45:26;8.13;;;4.63;;
16294;SDS011;8255;49.560;8.244;2023-01-31T14:48:01;9.67;;;5.40;;
16294;SDS011;8255;49.560;8.244;2023-01-31T14:50:35;13.80;;;6.40;;
16294;SDS011;8255;49.560;8.244;2023-01-31T14:53:10;8.53;;;5.60;;
16294;SDS011;8255;49.560;8.244;2023-01-31T14:55:46;9.70;;;5.27;;
16294;SDS011;8255;49.560;8.244;2023-01-31T14:58:14;12.83;;;7.90;;
16294;SDS011;8255;49.560;8.244;2023-01-31T15:00:47;8.53;;;5.53;;
16294;SDS011;8255;49.560;8.244;2023-01-31T15:03:15;17.30;;;7.40;;
16294;SDS011;8255;49.560;8.244;2023-01-31T15:05:43;9.60;;;6.13;;
16294;SDS011;8255;49.560;8.244;2023-01-31T15:11:01;8.23;;;6.40;;
16294;SDS011;8255;49.560;8.244;2023-01-31T15:13:32;9.87;;;6.67;;